Terminal Aerodrome Forecast
Issued by NWS

Current Version | Previous Version | Text Only | Print | Product List | Glossary Off
Versions: 1 2 3 4 5 6 7 8 9 10 11 12 13 14 15 16 17 18 19 20 21 22

000
FTUS41 KRNK 182328
TAFLWB
TAF
KLWB 182328Z 1900/1924 19010KT P6SM OVC045
      TEMPO 1900/1903 4SM -SHRA OVC025
     FM190300 20010G19KT 2SM -SHRA OVC030
     FM190400 22011G20KT 3SM -SHRA OVC020
     FM190600 25013G26KT P6SM OVC020
      TEMPO 1906/1910 2SM -SHRA OVC007=

USA.gov is the U.S. government's official web portal to all federal, state and local government web resources and services.